»·PEaware :: N851TX MMUN-KEYW

N851TX :: MMUN-KEYW

FLIGHT INFORMATION

Flight Status: Arrived
Operator: Privately registered:
United States
More flights under this callsign
Pilot: Andrew J. (13363)
Aircraft: Unknown
(TBM9)
More flights by this aircraft type
Origin: MMUN Cancun Intl
Mexico
Destination: KEYW Key West Intl
United States
More flights between these airports :: More routes between these airports
Route: CUN UJ18 URTOK UG765 MAXIM EYW
File this flight plan on PilotEdge
Remarks:
Altitude:
(Current/Filed)
31,000ft
Speed:
(Current/Filed)
307kts
Departed: 12-Jul-18 09:36 PM
Arrived: 12-Jul-18 11:14 PM
Distance/Time
Traveled:
353nm/1:38
Distance/Time
To Go:
Arrived

Flight Plot

Page will automatically refresh every two minutes.

Flight plan parsing failed; only flown route is shown


Map Options




Map Legend


Flown Route
Filed Route
Departure Airport
Arrival Airport
Navaid (VOR, NDB)
Fix

Horizontal Profiles

Position Reports

Time Latitude Longitude Heading Altitude Ground
Speed
12-Jul-18 21:36 21.250678 -86.742921 155 9ft 0kts
12-Jul-18 21:37 21.233387 -86.733927 151 457ft 129kts
12-Jul-18 21:38 21.196987 -86.715502 152 2011ft 161kts
12-Jul-18 21:39 21.159423 -86.717636 248 2267ft 194kts
12-Jul-18 21:40 21.140382 -86.774597 245 803ft 203kts
12-Jul-18 21:41 21.120979 -86.828122 248 641ft 192kts
12-Jul-18 21:42 21.089768 -86.867705 220 524ft 168kts
12-Jul-18 21:43 21.057352 -86.894741 202 361ft 112kts
12-Jul-18 21:44 21.040527 -86.883217 121 24ft 63kts
12-Jul-18 21:45 21.032007 -86.869726 123 24ft 46kts
12-Jul-18 21:46 21.030562 -86.864238 301 24ft 28kts
12-Jul-18 21:47 21.033919 -86.864440 113 24ft 8kts
12-Jul-18 21:48 21.033828 -86.864246 114 24ft 0kts
12-Jul-18 21:49 21.033828 -86.864246 114 24ft 0kts
12-Jul-18 21:50 21.033828 -86.864246 114 24ft 0kts
12-Jul-18 21:51 21.032352 -86.864967 213 24ft 12kts
12-Jul-18 21:52 21.042190 -86.880527 339 178ft 164kts
12-Jul-18 21:53 21.042962 -86.841089 102 2574ft 154kts
12-Jul-18 21:54 21.048028 -86.797819 72 5004ft 154kts
12-Jul-18 21:55 21.063786 -86.754507 72 7137ft 161kts
12-Jul-18 21:56 21.080450 -86.709524 72 9616ft 166kts
12-Jul-18 21:57 21.097779 -86.662709 73 11213ft 174kts
12-Jul-18 21:58 21.115910 -86.613660 73 12826ft 183kts
12-Jul-18 21:59 21.134856 -86.562375 73 14595ft 188kts
12-Jul-18 22:00 21.153582 -86.511723 73 16728ft 170kts
12-Jul-18 22:01 21.170891 -86.464697 73 18733ft 174kts
12-Jul-18 22:02 21.188996 -86.415532 72 20652ft 182kts
12-Jul-18 22:03 21.207783 -86.364485 72 22464ft 189kts
12-Jul-18 22:04 21.227311 -86.311411 72 24238ft 196kts
12-Jul-18 22:05 21.247559 -86.256318 71 26019ft 203kts
12-Jul-18 22:06 21.268367 -86.199625 70 27648ft 209kts
12-Jul-18 22:07 21.289853 -86.141020 70 29133ft 215kts
12-Jul-18 22:08 21.311905 -86.080798 69 30461ft 222kts
12-Jul-18 22:09 21.336028 -86.014821 69 31056ft 250kts
12-Jul-18 22:10 21.362971 -85.941026 69 31162ft 283kts
12-Jul-18 22:11 21.393289 -85.860249 59 31150ft 302kts
12-Jul-18 22:12 21.449072 -85.790649 47 31150ft 312kts
12-Jul-18 22:13 21.506389 -85.720592 49 31149ft 317kts
12-Jul-18 22:14 21.563423 -85.647755 49 31148ft 319kts
12-Jul-18 22:15 21.620513 -85.574698 49 31148ft 321kts
12-Jul-18 22:16 21.677617 -85.501523 49 31148ft 321kts
12-Jul-18 22:17 21.734844 -85.428092 49 31148ft 322kts
12-Jul-18 22:18 21.792217 -85.354372 49 31149ft 322kts
12-Jul-18 22:19 21.849316 -85.280906 49 31146ft 322kts
12-Jul-18 22:20 21.906602 -85.207095 49 31146ft 322kts
12-Jul-18 22:21 21.963549 -85.133597 49 31147ft 321kts
12-Jul-18 22:22 22.020912 -85.060202 48 31146ft 320kts
12-Jul-18 22:23 22.078077 -84.987350 48 31146ft 318kts
12-Jul-18 22:24 22.134872 -84.914880 48 31147ft 317kts
12-Jul-18 22:25 22.191285 -84.842787 48 31153ft 312kts
12-Jul-18 22:26 22.246359 -84.772316 48 31171ft 305kts
12-Jul-18 22:27 22.300516 -84.702922 48 31182ft 301kts
12-Jul-18 22:28 22.354315 -84.633897 48 31182ft 300kts
12-Jul-18 22:29 22.408054 -84.564859 48 31183ft 300kts
12-Jul-18 22:30 22.461465 -84.496152 48 31183ft 299kts
12-Jul-18 22:31 22.514936 -84.427275 48 31184ft 299kts
12-Jul-18 22:32 22.568350 -84.358381 48 31184ft 299kts
12-Jul-18 22:33 22.621661 -84.289533 48 31181ft 299kts
12-Jul-18 22:34 22.675007 -84.220538 48 31181ft 299kts
12-Jul-18 22:35 22.728220 -84.151631 48 31181ft 299kts
12-Jul-18 22:36 22.782043 -84.083217 47 31182ft 299kts
12-Jul-18 22:37 22.835832 -84.015137 47 31182ft 299kts
12-Jul-18 22:38 22.889932 -83.946572 47 31182ft 299kts
12-Jul-18 22:39 22.943900 -83.878081 47 31182ft 300kts
12-Jul-18 22:40 22.998212 -83.809071 47 31183ft 302kts
12-Jul-18 22:41 23.052817 -83.739593 47 31184ft 305kts
12-Jul-18 22:42 23.107979 -83.669300 47 31184ft 306kts
12-Jul-18 22:43 23.163162 -83.598892 47 31184ft 307kts
12-Jul-18 22:44 23.218516 -83.528162 47 31184ft 308kts
12-Jul-18 22:45 23.273761 -83.457469 47 31184ft 308kts
12-Jul-18 22:46 23.329192 -83.386443 47 31184ft 308kts
12-Jul-18 22:47 23.381928 -83.318775 48 31180ft 308kts
12-Jul-18 22:48 23.437285 -83.247642 48 31181ft 308kts
12-Jul-18 22:49 23.492445 -83.176674 48 31181ft 308kts
12-Jul-18 22:50 23.547676 -83.105503 48 31182ft 308kts
12-Jul-18 22:51 23.602849 -83.034307 48 31182ft 308kts
12-Jul-18 22:52 23.657903 -82.963201 49 31183ft 307kts
12-Jul-18 22:53 23.712671 -82.892314 49 31183ft 306kts
12-Jul-18 22:54 23.767258 -82.821562 49 31183ft 303kts
12-Jul-18 22:55 23.821270 -82.751452 50 31182ft 301kts
12-Jul-18 22:56 23.874820 -82.681856 50 31182ft 299kts
12-Jul-18 22:57 23.919292 -82.623983 50 31183ft 299kts
12-Jul-18 22:58 23.972544 -82.554598 50 31183ft 298kts
12-Jul-18 22:59 24.027761 -82.485011 48 30339ft 314kts
12-Jul-18 23:00 24.086903 -82.412917 48 28391ft 324kts
12-Jul-18 23:01 24.143953 -82.343290 48 26524ft 326kts
12-Jul-18 23:02 24.203861 -82.270058 48 24551ft 326kts
12-Jul-18 23:03 24.263991 -82.196444 48 22558ft 324kts
12-Jul-18 23:04 24.323670 -82.123282 48 20567ft 322kts
12-Jul-18 23:05 24.381189 -82.052672 48 17464ft 305kts
12-Jul-18 23:06 24.436108 -81.985138 48 13997ft 294kts
12-Jul-18 23:07 24.488937 -81.923043 27 11288ft 267kts
12-Jul-18 23:08 24.555324 -81.894545 41 8787ft 252kts
12-Jul-18 23:09 24.573646 -81.825939 84 6605ft 227kts
12-Jul-18 23:10 24.581022 -81.759406 88 4590ft 213kts
12-Jul-18 23:11 24.582104 -81.699733 89 3366ft 154kts
12-Jul-18 23:12 24.561998 -81.684260 232 1735ft 122kts
12-Jul-18 23:13 24.556403 -81.721567 274 832ft 122kts
12-Jul-18 23:14 24.556217 -81.751730 268 28ft 89kts
12-Jul-18 23:15 24.555247 -81.761014 89 3ft 14kts
12-Jul-18 23:16 24.554729 -81.757542 5 3ft 6kts
12-Jul-18 23:17 24.554803 -81.757541 358 3ft 0kts
12-Jul-18 23:18 24.554803 -81.757541 358 3ft 0kts

Navigation Log

Ident Type
Flight plan parsing failed, navigation log unavailable